sensor_id;sensor_type;location;lat;lon;timestamp;P1;durP1;ratioP1;P2;durP2;ratioP2
15651;SDS011;7926;43.576;1.458;2022-09-02T00:02:21;0.60;;;0.60;;
15651;SDS011;7926;43.576;1.458;2022-09-02T00:04:49;0.60;;;0.60;;
15651;SDS011;7926;43.576;1.458;2022-09-02T00:07:16;0.60;;;0.60;;
15651;SDS011;7926;43.576;1.458;2022-09-02T00:09:45;0.52;;;0.52;;
15651;SDS011;7926;43.576;1.458;2022-09-02T00:12:12;0.60;;;0.60;;
15651;SDS011;7926;43.576;1.458;2022-09-02T00:14:40;0.60;;;0.60;;
15651;SDS011;7926;43.576;1.458;2022-09-02T00:17:07;0.50;;;0.50;;
15651;SDS011;7926;43.576;1.458;2022-09-02T00:19:34;0.57;;;0.57;;
15651;SDS011;7926;43.576;1.458;2022-09-02T00:22:02;0.50;;;0.50;;
15651;SDS011;7926;43.576;1.458;2022-09-02T00:24:30;0.50;;;0.50;;
15651;SDS011;7926;43.576;1.458;2022-09-02T00:26:58;0.60;;;0.60;;
15651;SDS011;7926;43.576;1.458;2022-09-02T00:29:26;0.60;;;0.60;;
15651;SDS011;7926;43.576;1.458;2022-09-02T00:31:53;0.68;;;0.68;;
15651;SDS011;7926;43.576;1.458;2022-09-02T00:34:21;0.60;;;0.60;;
15651;SDS011;7926;43.576;1.458;2022-09-02T00:36:48;0.60;;;0.60;;
15651;SDS011;7926;43.576;1.458;2022-09-02T00:39:16;0.50;;;0.50;;
15651;SDS011;7926;43.576;1.458;2022-09-02T00:41:43;0.55;;;0.55;;
15651;SDS011;7926;43.576;1.458;2022-09-02T00:44:13;0.60;;;0.60;;
15651;SDS011;7926;43.576;1.458;2022-09-02T00:46:41;0.60;;;0.60;;
15651;SDS011;7926;43.576;1.458;2022-09-02T00:49:09;0.60;;;0.60;;
15651;SDS011;7926;43.576;1.458;2022-09-02T00:51:38;0.60;;;0.60;;
15651;SDS011;7926;43.576;1.458;2022-09-02T00:54:07;0.53;;;0.53;;
15651;SDS011;7926;43.576;1.458;2022-09-02T00:56:36;0.60;;;0.60;;
15651;SDS011;7926;43.576;1.458;2022-09-02T00:59:04;0.60;;;0.60;;
15651;SDS011;7926;43.576;1.458;2022-09-02T01:01:33;0.60;;;0.60;;
15651;SDS011;7926;43.576;1.458;2022-09-02T01:04:00;0.60;;;0.60;;
15651;SDS011;7926;43.576;1.458;2022-09-02T01:06:27;0.50;;;0.50;;
15651;SDS011;7926;43.576;1.458;2022-09-02T01:08:59;0.57;;;0.57;;
15651;SDS011;7926;43.576;1.458;2022-09-02T01:11:28;0.60;;;0.60;;
15651;SDS011;7926;43.576;1.458;2022-09-02T01:13:57;0.60;;;0.60;;
15651;SDS011;7926;43.576;1.458;2022-09-02T01:16:27;0.60;;;0.60;;
15651;SDS011;7926;43.576;1.458;2022-09-02T01:18:57;0.60;;;0.60;;
15651;SDS011;7926;43.576;1.458;2022-09-02T01:21:26;0.50;;;0.50;;
15651;SDS011;7926;43.576;1.458;2022-09-02T01:23:54;0.60;;;0.60;;
15651;SDS011;7926;43.576;1.458;2022-09-02T01:26:22;0.60;;;0.60;;
15651;SDS011;7926;43.576;1.458;2022-09-02T01:28:49;0.60;;;0.60;;
15651;SDS011;7926;43.576;1.458;2022-09-02T01:31:16;0.60;;;0.60;;
15651;SDS011;7926;43.576;1.458;2022-09-02T01:33:44;0.70;;;0.70;;
15651;SDS011;7926;43.576;1.458;2022-09-02T01:36:11;0.60;;;0.60;;
15651;SDS011;7926;43.576;1.458;2022-09-02T01:38:38;0.70;;;0.70;;
15651;SDS011;7926;43.576;1.458;2022-09-02T01:41:07;0.60;;;0.60;;
15651;SDS011;7926;43.576;1.458;2022-09-02T01:43:34;0.70;;;0.70;;
15651;SDS011;7926;43.576;1.458;2022-09-02T01:46:02;0.60;;;0.60;;
15651;SDS011;7926;43.576;1.458;2022-09-02T01:48:29;0.60;;;0.60;;
15651;SDS011;7926;43.576;1.458;2022-09-02T01:50:57;0.60;;;0.60;;
15651;SDS011;7926;43.576;1.458;2022-09-02T01:53:25;0.70;;;0.70;;
15651;SDS011;7926;43.576;1.458;2022-09-02T01:55:53;0.70;;;0.70;;
15651;SDS011;7926;43.576;1.458;2022-09-02T01:58:22;0.63;;;0.63;;
15651;SDS011;7926;43.576;1.458;2022-09-02T02:00:49;0.60;;;0.60;;
15651;SDS011;7926;43.576;1.458;2022-09-02T02:03:17;0.67;;;0.67;;
15651;SDS011;7926;43.576;1.458;2022-09-02T02:05:44;0.60;;;0.60;;
15651;SDS011;7926;43.576;1.458;2022-09-02T02:08:11;0.60;;;0.60;;
15651;SDS011;7926;43.576;1.458;2022-09-02T02:10:39;0.60;;;0.60;;
15651;SDS011;7926;43.576;1.458;2022-09-02T02:13:08;0.60;;;0.60;;
15651;SDS011;7926;43.576;1.458;2022-09-02T02:15:37;0.60;;;0.60;;
15651;SDS011;7926;43.576;1.458;2022-09-02T02:18:05;0.60;;;0.60;;
15651;SDS011;7926;43.576;1.458;2022-09-02T02:20:32;0.60;;;0.60;;
15651;SDS011;7926;43.576;1.458;2022-09-02T02:22:59;0.60;;;0.60;;
15651;SDS011;7926;43.576;1.458;2022-09-02T02:25:27;0.60;;;0.60;;
15651;SDS011;7926;43.576;1.458;2022-09-02T02:27:54;0.60;;;0.60;;
15651;SDS011;7926;43.576;1.458;2022-09-02T02:30:21;0.60;;;0.60;;
15651;SDS011;7926;43.576;1.458;2022-09-02T02:32:50;0.60;;;0.60;;
15651;SDS011;7926;43.576;1.458;2022-09-02T02:35:17;0.60;;;0.60;;
15651;SDS011;7926;43.576;1.458;2022-09-02T02:37:45;0.60;;;0.60;;
15651;SDS011;7926;43.576;1.458;2022-09-02T02:40:14;0.60;;;0.60;;
15651;SDS011;7926;43.576;1.458;2022-09-02T02:42:42;0.60;;;0.60;;
15651;SDS011;7926;43.576;1.458;2022-09-02T02:45:09;0.60;;;0.60;;
15651;SDS011;7926;43.576;1.458;2022-09-02T02:47:37;0.60;;;0.60;;
15651;SDS011;7926;43.576;1.458;2022-09-02T02:50:07;0.70;;;0.70;;
15651;SDS011;7926;43.576;1.458;2022-09-02T02:52:35;0.70;;;0.70;;
15651;SDS011;7926;43.576;1.458;2022-09-02T02:55:03;0.70;;;0.70;;
15651;SDS011;7926;43.576;1.458;2022-09-02T02:57:31;0.60;;;0.60;;
15651;SDS011;7926;43.576;1.458;2022-09-02T03:00:00;0.60;;;0.60;;
15651;SDS011;7926;43.576;1.458;2022-09-02T03:02:28;0.70;;;0.70;;
15651;SDS011;7926;43.576;1.458;2022-09-02T03:04:58;0.60;;;0.60;;
15651;SDS011;7926;43.576;1.458;2022-09-02T03:07:27;0.70;;;0.70;;
15651;SDS011;7926;43.576;1.458;2022-09-02T03:09:54;0.70;;;0.70;;
15651;SDS011;7926;43.576;1.458;2022-09-02T03:12:22;0.50;;;0.50;;
15651;SDS011;7926;43.576;1.458;2022-09-02T03:14:50;0.60;;;0.60;;
15651;SDS011;7926;43.576;1.458;2022-09-02T03:17:17;0.60;;;0.60;;
15651;SDS011;7926;43.576;1.458;2022-09-02T03:19:44;0.70;;;0.70;;
15651;SDS011;7926;43.576;1.458;2022-09-02T03:22:12;0.60;;;0.60;;
15651;SDS011;7926;43.576;1.458;2022-09-02T03:24:41;0.60;;;0.60;;
15651;SDS011;7926;43.576;1.458;2022-09-02T03:27:08;0.60;;;0.60;;
15651;SDS011;7926;43.576;1.458;2022-09-02T03:29:36;0.60;;;0.60;;
15651;SDS011;7926;43.576;1.458;2022-09-02T03:32:03;0.70;;;0.70;;
15651;SDS011;7926;43.576;1.458;2022-09-02T03:34:30;0.60;;;0.60;;
15651;SDS011;7926;43.576;1.458;2022-09-02T03:36:58;0.60;;;0.60;;
15651;SDS011;7926;43.576;1.458;2022-09-02T03:39:25;0.60;;;0.60;;
15651;SDS011;7926;43.576;1.458;2022-09-02T03:41:54;0.63;;;0.63;;
15651;SDS011;7926;43.576;1.458;2022-09-02T03:44:21;0.60;;;0.60;;
15651;SDS011;7926;43.576;1.458;2022-09-02T03:46:49;0.60;;;0.60;;
15651;SDS011;7926;43.576;1.458;2022-09-02T03:49:16;0.60;;;0.60;;
15651;SDS011;7926;43.576;1.458;2022-09-02T03:51:43;0.70;;;0.70;;
15651;SDS011;7926;43.576;1.458;2022-09-02T03:54:10;0.60;;;0.60;;
15651;SDS011;7926;43.576;1.458;2022-09-02T03:56:38;0.60;;;0.60;;
15651;SDS011;7926;43.576;1.458;2022-09-02T03:59:06;0.60;;;0.60;;
15651;SDS011;7926;43.576;1.458;2022-09-02T04:01:34;0.60;;;0.60;;
15651;SDS011;7926;43.576;1.458;2022-09-02T04:04:02;0.67;;;0.67;;
15651;SDS011;7926;43.576;1.458;2022-09-02T04:06:29;0.60;;;0.60;;
15651;SDS011;7926;43.576;1.458;2022-09-02T04:08:56;0.70;;;0.70;;
15651;SDS011;7926;43.576;1.458;2022-09-02T04:11:24;0.70;;;0.70;;
15651;SDS011;7926;43.576;1.458;2022-09-02T04:13:51;0.60;;;0.60;;
15651;SDS011;7926;43.576;1.458;2022-09-02T04:16:21;0.60;;;0.60;;
15651;SDS011;7926;43.576;1.458;2022-09-02T04:18:52;0.60;;;0.60;;
15651;SDS011;7926;43.576;1.458;2022-09-02T04:21:20;0.70;;;0.70;;
15651;SDS011;7926;43.576;1.458;2022-09-02T04:23:47;0.70;;;0.70;;
15651;SDS011;7926;43.576;1.458;2022-09-02T04:26:17;0.60;;;0.60;;
15651;SDS011;7926;43.576;1.458;2022-09-02T04:28:44;0.67;;;0.67;;
15651;SDS011;7926;43.576;1.458;2022-09-02T04:31:12;0.70;;;0.70;;
15651;SDS011;7926;43.576;1.458;2022-09-02T04:33:41;0.60;;;0.60;;
15651;SDS011;7926;43.576;1.458;2022-09-02T04:36:09;0.70;;;0.70;;
15651;SDS011;7926;43.576;1.458;2022-09-02T04:38:37;0.70;;;0.70;;
15651;SDS011;7926;43.576;1.458;2022-09-02T04:41:05;0.70;;;0.70;;
15651;SDS011;7926;43.576;1.458;2022-09-02T04:43:32;0.60;;;0.60;;
15651;SDS011;7926;43.576;1.458;2022-09-02T04:46:00;0.60;;;0.60;;
15651;SDS011;7926;43.576;1.458;2022-09-02T04:48:29;0.60;;;0.60;;
15651;SDS011;7926;43.576;1.458;2022-09-02T04:50:58;0.60;;;0.60;;
15651;SDS011;7926;43.576;1.458;2022-09-02T04:53:29;0.60;;;0.60;;
15651;SDS011;7926;43.576;1.458;2022-09-02T04:55:56;0.60;;;0.60;;
15651;SDS011;7926;43.576;1.458;2022-09-02T04:58:24;0.60;;;0.60;;
15651;SDS011;7926;43.576;1.458;2022-09-02T05:00:52;0.60;;;0.60;;
15651;SDS011;7926;43.576;1.458;2022-09-02T05:03:20;0.60;;;0.60;;
15651;SDS011;7926;43.576;1.458;2022-09-02T05:05:57;0.50;;;0.50;;
15651;SDS011;7926;43.576;1.458;2022-09-02T05:08:25;0.60;;;0.60;;
15651;SDS011;7926;43.576;1.458;2022-09-02T05:10:52;0.50;;;0.50;;
15651;SDS011;7926;43.576;1.458;2022-09-02T05:13:19;0.50;;;0.50;;
15651;SDS011;7926;43.576;1.458;2022-09-02T05:15:47;0.50;;;0.50;;
15651;SDS011;7926;43.576;1.458;2022-09-02T05:18:15;0.50;;;0.50;;
15651;SDS011;7926;43.576;1.458;2022-09-02T05:20:42;0.60;;;0.60;;
15651;SDS011;7926;43.576;1.458;2022-09-02T05:23:11;0.57;;;0.57;;
15651;SDS011;7926;43.576;1.458;2022-09-02T05:25:39;0.50;;;0.50;;
15651;SDS011;7926;43.576;1.458;2022-09-02T05:28:07;0.50;;;0.50;;
15651;SDS011;7926;43.576;1.458;2022-09-02T05:30:34;0.50;;;0.50;;
15651;SDS011;7926;43.576;1.458;2022-09-02T05:33:02;0.50;;;0.50;;
15651;SDS011;7926;43.576;1.458;2022-09-02T05:35:29;0.50;;;0.50;;
15651;SDS011;7926;43.576;1.458;2022-09-02T05:37:57;0.50;;;0.50;;
15651;SDS011;7926;43.576;1.458;2022-09-02T05:40:26;0.50;;;0.50;;
15651;SDS011;7926;43.576;1.458;2022-09-02T05:42:53;0.40;;;0.40;;
15651;SDS011;7926;43.576;1.458;2022-09-02T05:45:21;0.50;;;0.50;;
15651;SDS011;7926;43.576;1.458;2022-09-02T05:47:48;0.50;;;0.50;;
15651;SDS011;7926;43.576;1.458;2022-09-02T05:50:16;0.50;;;0.50;;
15651;SDS011;7926;43.576;1.458;2022-09-02T05:52:44;0.50;;;0.50;;
15651;SDS011;7926;43.576;1.458;2022-09-02T05:55:12;0.50;;;0.50;;
15651;SDS011;7926;43.576;1.458;2022-09-02T05:57:40;0.50;;;0.50;;
15651;SDS011;7926;43.576;1.458;2022-09-02T06:00:10;0.50;;;0.50;;
15651;SDS011;7926;43.576;1.458;2022-09-02T06:02:38;0.50;;;0.50;;
15651;SDS011;7926;43.576;1.458;2022-09-02T06:05:05;0.50;;;0.50;;
15651;SDS011;7926;43.576;1.458;2022-09-02T06:07:36;0.53;;;0.53;;
15651;SDS011;7926;43.576;1.458;2022-09-02T06:10:04;0.50;;;0.50;;
15651;SDS011;7926;43.576;1.458;2022-09-02T06:12:31;0.50;;;0.50;;
15651;SDS011;7926;43.576;1.458;2022-09-02T06:15:00;0.50;;;0.50;;
15651;SDS011;7926;43.576;1.458;2022-09-02T06:17:28;0.50;;;0.50;;
15651;SDS011;7926;43.576;1.458;2022-09-02T06:19:55;0.50;;;0.50;;
15651;SDS011;7926;43.576;1.458;2022-09-02T06:22:23;0.50;;;0.50;;
15651;SDS011;7926;43.576;1.458;2022-09-02T06:24:50;0.50;;;0.50;;
15651;SDS011;7926;43.576;1.458;2022-09-02T06:27:17;0.60;;;0.60;;
15651;SDS011;7926;43.576;1.458;2022-09-02T06:29:45;0.60;;;0.60;;
15651;SDS011;7926;43.576;1.458;2022-09-02T06:32:14;0.50;;;0.50;;
15651;SDS011;7926;43.576;1.458;2022-09-02T06:34:41;0.50;;;0.50;;
15651;SDS011;7926;43.576;1.458;2022-09-02T06:37:09;0.50;;;0.50;;
15651;SDS011;7926;43.576;1.458;2022-09-02T06:39:36;0.50;;;0.50;;
15651;SDS011;7926;43.576;1.458;2022-09-02T06:42:07;0.50;;;0.50;;
15651;SDS011;7926;43.576;1.458;2022-09-02T06:44:35;0.50;;;0.50;;
15651;SDS011;7926;43.576;1.458;2022-09-02T06:47:02;0.50;;;0.50;;
15651;SDS011;7926;43.576;1.458;2022-09-02T06:49:31;0.60;;;0.60;;
15651;SDS011;7926;43.576;1.458;2022-09-02T06:51:59;0.60;;;0.60;;
15651;SDS011;7926;43.576;1.458;2022-09-02T06:54:26;0.50;;;0.50;;
15651;SDS011;7926;43.576;1.458;2022-09-02T06:56:53;0.50;;;0.50;;
15651;SDS011;7926;43.576;1.458;2022-09-02T06:59:21;0.50;;;0.50;;
15651;SDS011;7926;43.576;1.458;2022-09-02T07:01:48;0.60;;;0.60;;
15651;SDS011;7926;43.576;1.458;2022-09-02T07:04:16;0.50;;;0.50;;
15651;SDS011;7926;43.576;1.458;2022-09-02T07:07:03;0.50;;;0.50;;
15651;SDS011;7926;43.576;1.458;2022-09-02T07:09:31;0.50;;;0.50;;
15651;SDS011;7926;43.576;1.458;2022-09-02T07:11:59;0.50;;;0.50;;
15651;SDS011;7926;43.576;1.458;2022-09-02T07:14:27;0.50;;;0.50;;
15651;SDS011;7926;43.576;1.458;2022-09-02T07:16:55;0.60;;;0.60;;
15651;SDS011;7926;43.576;1.458;2022-09-02T07:19:24;0.50;;;0.50;;
15651;SDS011;7926;43.576;1.458;2022-09-02T07:21:51;0.50;;;0.50;;
15651;SDS011;7926;43.576;1.458;2022-09-02T07:24:20;0.50;;;0.50;;
15651;SDS011;7926;43.576;1.458;2022-09-02T07:26:48;0.50;;;0.50;;
15651;SDS011;7926;43.576;1.458;2022-09-02T07:29:16;0.50;;;0.50;;
15651;SDS011;7926;43.576;1.458;2022-09-02T07:31:44;0.50;;;0.50;;
15651;SDS011;7926;43.576;1.458;2022-09-02T07:34:11;0.50;;;0.50;;
15651;SDS011;7926;43.576;1.458;2022-09-02T07:36:39;0.50;;;0.50;;
15651;SDS011;7926;43.576;1.458;2022-09-02T07:39:07;0.60;;;0.60;;
15651;SDS011;7926;43.576;1.458;2022-09-02T07:41:36;0.50;;;0.50;;
15651;SDS011;7926;43.576;1.458;2022-09-02T07:44:05;0.57;;;0.57;;
15651;SDS011;7926;43.576;1.458;2022-09-02T07:46:32;0.50;;;0.50;;
15651;SDS011;7926;43.576;1.458;2022-09-02T07:49:01;0.50;;;0.50;;
15651;SDS011;7926;43.576;1.458;2022-09-02T07:51:31;0.50;;;0.50;;
15651;SDS011;7926;43.576;1.458;2022-09-02T07:53:58;0.50;;;0.50;;
15651;SDS011;7926;43.576;1.458;2022-09-02T07:56:26;0.50;;;0.50;;
15651;SDS011;7926;43.576;1.458;2022-09-02T07:58:54;0.50;;;0.50;;
15651;SDS011;7926;43.576;1.458;2022-09-02T08:01:22;0.60;;;0.60;;
15651;SDS011;7926;43.576;1.458;2022-09-02T08:03:49;0.50;;;0.50;;
15651;SDS011;7926;43.576;1.458;2022-09-02T08:06:17;0.60;;;0.60;;
15651;SDS011;7926;43.576;1.458;2022-09-02T08:08:44;0.60;;;0.60;;
15651;SDS011;7926;43.576;1.458;2022-09-02T08:11:12;0.53;;;0.53;;
15651;SDS011;7926;43.576;1.458;2022-09-02T08:13:40;0.50;;;0.50;;
15651;SDS011;7926;43.576;1.458;2022-09-02T08:16:09;0.50;;;0.50;;
15651;SDS011;7926;43.576;1.458;2022-09-02T08:18:36;0.50;;;0.50;;
15651;SDS011;7926;43.576;1.458;2022-09-02T08:21:03;0.50;;;0.50;;
15651;SDS011;7926;43.576;1.458;2022-09-02T08:23:31;0.60;;;0.60;;
15651;SDS011;7926;43.576;1.458;2022-09-02T08:25:58;0.50;;;0.50;;
15651;SDS011;7926;43.576;1.458;2022-09-02T08:28:26;0.50;;;0.50;;
15651;SDS011;7926;43.576;1.458;2022-09-02T08:30:55;0.50;;;0.50;;
15651;SDS011;7926;43.576;1.458;2022-09-02T08:33:24;0.60;;;0.60;;
15651;SDS011;7926;43.576;1.458;2022-09-02T08:35:52;0.55;;;0.55;;
15651;SDS011;7926;43.576;1.458;2022-09-02T08:38:20;0.40;;;0.40;;
15651;SDS011;7926;43.576;1.458;2022-09-02T08:40:48;0.50;;;0.50;;
15651;SDS011;7926;43.576;1.458;2022-09-02T08:43:18;0.50;;;0.50;;
15651;SDS011;7926;43.576;1.458;2022-09-02T08:45:53;0.60;;;0.60;;
15651;SDS011;7926;43.576;1.458;2022-09-02T08:48:24;0.50;;;0.50;;
15651;SDS011;7926;43.576;1.458;2022-09-02T08:50:57;0.50;;;0.50;;
15651;SDS011;7926;43.576;1.458;2022-09-02T08:53:29;0.50;;;0.50;;
15651;SDS011;7926;43.576;1.458;2022-09-02T08:55:58;0.50;;;0.50;;
15651;SDS011;7926;43.576;1.458;2022-09-02T08:58:28;0.50;;;0.50;;
15651;SDS011;7926;43.576;1.458;2022-09-02T09:00:58;0.60;;;0.60;;
15651;SDS011;7926;43.576;1.458;2022-09-02T09:03:29;0.50;;;0.50;;
15651;SDS011;7926;43.576;1.458;2022-09-02T09:06:02;0.50;;;0.50;;
15651;SDS011;7926;43.576;1.458;2022-09-02T09:08:32;0.60;;;0.60;;
15651;SDS011;7926;43.576;1.458;2022-09-02T09:11:03;0.60;;;0.60;;
15651;SDS011;7926;43.576;1.458;2022-09-02T09:13:46;0.60;;;0.60;;
15651;SDS011;7926;43.576;1.458;2022-09-02T09:16:18;0.60;;;0.60;;
15651;SDS011;7926;43.576;1.458;2022-09-02T09:18:51;0.50;;;0.50;;
15651;SDS011;7926;43.576;1.458;2022-09-02T09:21:22;0.50;;;0.50;;
15651;SDS011;7926;43.576;1.458;2022-09-02T09:23:49;0.50;;;0.50;;
15651;SDS011;7926;43.576;1.458;2022-09-02T09:26:19;0.50;;;0.50;;
15651;SDS011;7926;43.576;1.458;2022-09-02T09:28:49;0.47;;;0.47;;
15651;SDS011;7926;43.576;1.458;2022-09-02T09:31:17;0.50;;;0.50;;
15651;SDS011;7926;43.576;1.458;2022-09-02T09:33:55;0.40;;;0.40;;
15651;SDS011;7926;43.576;1.458;2022-09-02T09:36:43;0.50;;;0.50;;
15651;SDS011;7926;43.576;1.458;2022-09-02T09:39:22;0.50;;;0.50;;
15651;SDS011;7926;43.576;1.458;2022-09-02T09:41:50;0.50;;;0.50;;
15651;SDS011;7926;43.576;1.458;2022-09-02T09:44:37;0.60;;;0.60;;
15651;SDS011;7926;43.576;1.458;2022-09-02T09:47:09;0.60;;;0.60;;
15651;SDS011;7926;43.576;1.458;2022-09-02T09:49:38;0.60;;;0.60;;
15651;SDS011;7926;43.576;1.458;2022-09-02T09:52:07;0.50;;;0.50;;
15651;SDS011;7926;43.576;1.458;2022-09-02T09:54:34;0.60;;;0.60;;
15651;SDS011;7926;43.576;1.458;2022-09-02T09:57:15;0.50;;;0.50;;
15651;SDS011;7926;43.576;1.458;2022-09-02T09:59:43;0.60;;;0.60;;
15651;SDS011;7926;43.576;1.458;2022-09-02T10:02:20;0.50;;;0.50;;
15651;SDS011;7926;43.576;1.458;2022-09-02T10:04:48;0.47;;;0.47;;
15651;SDS011;7926;43.576;1.458;2022-09-02T10:10:08;0.50;;;0.50;;
15651;SDS011;7926;43.576;1.458;2022-09-02T10:12:38;0.50;;;0.50;;
15651;SDS011;7926;43.576;1.458;2022-09-02T10:15:05;0.50;;;0.50;;
15651;SDS011;7926;43.576;1.458;2022-09-02T10:17:35;0.50;;;0.50;;
15651;SDS011;7926;43.576;1.458;2022-09-02T10:20:07;0.60;;;0.60;;
15651;SDS011;7926;43.576;1.458;2022-09-02T10:25:28;0.50;;;0.50;;
15651;SDS011;7926;43.576;1.458;2022-09-02T10:27:58;0.60;;;0.60;;
15651;SDS011;7926;43.576;1.458;2022-09-02T10:30:28;0.60;;;0.60;;
15651;SDS011;7926;43.576;1.458;2022-09-02T10:33:03;0.60;;;0.60;;
15651;SDS011;7926;43.576;1.458;2022-09-02T10:35:36;0.57;;;0.57;;
15651;SDS011;7926;43.576;1.458;2022-09-02T10:38:10;0.60;;;0.60;;
15651;SDS011;7926;43.576;1.458;2022-09-02T10:40:42;0.60;;;0.60;;
15651;SDS011;7926;43.576;1.458;2022-09-02T10:43:18;0.60;;;0.60;;
15651;SDS011;7926;43.576;1.458;2022-09-02T10:45:51;0.57;;;0.57;;
15651;SDS011;7926;43.576;1.458;2022-09-02T10:48:26;0.60;;;0.60;;
15651;SDS011;7926;43.576;1.458;2022-09-02T10:50:57;0.60;;;0.60;;
15651;SDS011;7926;43.576;1.458;2022-09-02T10:53:42;0.60;;;0.60;;
15651;SDS011;7926;43.576;1.458;2022-09-02T10:56:12;0.60;;;0.60;;
15651;SDS011;7926;43.576;1.458;2022-09-02T10:58:42;0.55;;;0.55;;
15651;SDS011;7926;43.576;1.458;2022-09-02T11:01:14;0.50;;;0.50;;
15651;SDS011;7926;43.576;1.458;2022-09-02T11:03:53;0.60;;;0.60;;
15651;SDS011;7926;43.576;1.458;2022-09-02T11:06:23;0.50;;;0.50;;
15651;SDS011;7926;43.576;1.458;2022-09-02T11:08:52;0.60;;;0.60;;
15651;SDS011;7926;43.576;1.458;2022-09-02T11:11:25;0.57;;;0.57;;
15651;SDS011;7926;43.576;1.458;2022-09-02T11:13:57;0.50;;;0.50;;
15651;SDS011;7926;43.576;1.458;2022-09-02T11:16:27;0.50;;;0.50;;
15651;SDS011;7926;43.576;1.458;2022-09-02T11:18:58;0.40;;;0.40;;
15651;SDS011;7926;43.576;1.458;2022-09-02T11:21:34;0.50;;;0.50;;
15651;SDS011;7926;43.576;1.458;2022-09-02T11:24:03;0.60;;;0.60;;
15651;SDS011;7926;43.576;1.458;2022-09-02T11:26:34;0.50;;;0.50;;
15651;SDS011;7926;43.576;1.458;2022-09-02T11:29:06;0.47;;;0.47;;
15651;SDS011;7926;43.576;1.458;2022-09-02T11:31:37;0.60;;;0.60;;
15651;SDS011;7926;43.576;1.458;2022-09-02T11:34:14;0.60;;;0.60;;
15651;SDS011;7926;43.576;1.458;2022-09-02T11:36:42;0.60;;;0.60;;
15651;SDS011;7926;43.576;1.458;2022-09-02T11:39:10;0.50;;;0.50;;
15651;SDS011;7926;43.576;1.458;2022-09-02T11:41:46;0.60;;;0.60;;
15651;SDS011;7926;43.576;1.458;2022-09-02T11:44:24;0.70;;;0.70;;
15651;SDS011;7926;43.576;1.458;2022-09-02T11:47:07;0.70;;;0.70;;
15651;SDS011;7926;43.576;1.458;2022-09-02T11:49:49;0.70;;;0.70;;
15651;SDS011;7926;43.576;1.458;2022-09-02T11:52:27;0.60;;;0.60;;
15651;SDS011;7926;43.576;1.458;2022-09-02T11:55:00;0.60;;;0.60;;
15651;SDS011;7926;43.576;1.458;2022-09-02T11:57:31;0.63;;;0.63;;
15651;SDS011;7926;43.576;1.458;2022-09-02T12:02:51;0.60;;;0.60;;
15651;SDS011;7926;43.576;1.458;2022-09-02T12:08:09;0.60;;;0.60;;
15651;SDS011;7926;43.576;1.458;2022-09-02T12:10:56;0.70;;;0.70;;
15651;SDS011;7926;43.576;1.458;2022-09-02T12:13:33;0.60;;;0.60;;
15651;SDS011;7926;43.576;1.458;2022-09-02T12:19:15;0.60;;;0.60;;
15651;SDS011;7926;43.576;1.458;2022-09-02T12:24:25;0.60;;;0.60;;
15651;SDS011;7926;43.576;1.458;2022-09-02T12:27:09;0.60;;;0.60;;
15651;SDS011;7926;43.576;1.458;2022-09-02T12:29:46;0.60;;;0.60;;
15651;SDS011;7926;43.576;1.458;2022-09-02T12:35:06;0.70;;;0.70;;
15651;SDS011;7926;43.576;1.458;2022-09-02T12:37:49;0.68;;;0.68;;
15651;SDS011;7926;43.576;1.458;2022-09-02T12:40:19;0.63;;;0.63;;
15651;SDS011;7926;43.576;1.458;2022-09-02T12:42:50;0.60;;;0.60;;
15651;SDS011;7926;43.576;1.458;2022-09-02T12:45:23;0.70;;;0.70;;
15651;SDS011;7926;43.576;1.458;2022-09-02T12:47:52;0.60;;;0.60;;
15651;SDS011;7926;43.576;1.458;2022-09-02T12:50:25;0.60;;;0.60;;
15651;SDS011;7926;43.576;1.458;2022-09-02T12:55:55;0.70;;;0.70;;
15651;SDS011;7926;43.576;1.458;2022-09-02T12:58:29;0.70;;;0.70;;
15651;SDS011;7926;43.576;1.458;2022-09-02T13:03:45;0.70;;;0.70;;
15651;SDS011;7926;43.576;1.458;2022-09-02T13:06:16;0.80;;;0.80;;
15651;SDS011;7926;43.576;1.458;2022-09-02T13:14:37;0.77;;;0.77;;
15651;SDS011;7926;43.576;1.458;2022-09-02T13:17:18;0.70;;;0.70;;
15651;SDS011;7926;43.576;1.458;2022-09-02T13:46:51;0.70;;;0.70;;
15651;SDS011;7926;43.576;1.458;2022-09-02T13:49:32;0.70;;;0.70;;
15651;SDS011;7926;43.576;1.458;2022-09-02T13:52:01;0.70;;;0.70;;
15651;SDS011;7926;43.576;1.458;2022-09-02T13:54:31;0.60;;;0.60;;
15651;SDS011;7926;43.576;1.458;2022-09-02T13:57:00;0.70;;;0.70;;
15651;SDS011;7926;43.576;1.458;2022-09-02T13:59:32;0.70;;;0.70;;
15651;SDS011;7926;43.576;1.458;2022-09-02T14:04:44;0.70;;;0.70;;
15651;SDS011;7926;43.576;1.458;2022-09-02T14:07:11;0.70;;;0.70;;
15651;SDS011;7926;43.576;1.458;2022-09-02T14:09:42;0.80;;;0.80;;
15651;SDS011;7926;43.576;1.458;2022-09-02T14:12:10;0.70;;;0.70;;
15651;SDS011;7926;43.576;1.458;2022-09-02T14:14:38;0.70;;;0.70;;
15651;SDS011;7926;43.576;1.458;2022-09-02T14:17:17;0.70;;;0.70;;
15651;SDS011;7926;43.576;1.458;2022-09-02T14:19:46;0.80;;;0.80;;
15651;SDS011;7926;43.576;1.458;2022-09-02T14:22:24;0.80;;;0.80;;
15651;SDS011;7926;43.576;1.458;2022-09-02T14:24:52;0.80;;;0.80;;
15651;SDS011;7926;43.576;1.458;2022-09-02T14:27:20;0.60;;;0.60;;
15651;SDS011;7926;43.576;1.458;2022-09-02T14:29:50;0.77;;;0.77;;
15651;SDS011;7926;43.576;1.458;2022-09-02T14:32:22;0.70;;;0.70;;
15651;SDS011;7926;43.576;1.458;2022-09-02T14:37:45;0.70;;;0.70;;
15651;SDS011;7926;43.576;1.458;2022-09-02T14:42:49;0.70;;;0.70;;
15651;SDS011;7926;43.576;1.458;2022-09-02T14:45:23;0.80;;;0.80;;
15651;SDS011;7926;43.576;1.458;2022-09-02T14:47:52;0.70;;;0.70;;
15651;SDS011;7926;43.576;1.458;2022-09-02T14:50:21;0.80;;;0.80;;
15651;SDS011;7926;43.576;1.458;2022-09-02T14:52:51;0.77;;;0.77;;
15651;SDS011;7926;43.576;1.458;2022-09-02T15:03:08;0.70;;;0.70;;
15651;SDS011;7926;43.576;1.458;2022-09-02T15:05:39;0.75;;;0.75;;
15651;SDS011;7926;43.576;1.458;2022-09-02T15:08:08;0.80;;;0.80;;
15651;SDS011;7926;43.576;1.458;2022-09-02T15:10:35;0.77;;;0.77;;
15651;SDS011;7926;43.576;1.458;2022-09-02T15:13:05;0.70;;;0.70;;
15651;SDS011;7926;43.576;1.458;2022-09-02T15:15:32;0.80;;;0.80;;
15651;SDS011;7926;43.576;1.458;2022-09-02T15:18:00;0.73;;;0.73;;
15651;SDS011;7926;43.576;1.458;2022-09-02T15:20:29;0.80;;;0.80;;
15651;SDS011;7926;43.576;1.458;2022-09-02T15:22:59;0.80;;;0.80;;
15651;SDS011;7926;43.576;1.458;2022-09-02T15:25:33;0.82;;;0.82;;
15651;SDS011;7926;43.576;1.458;2022-09-02T15:28:00;0.85;;;0.85;;
15651;SDS011;7926;43.576;1.458;2022-09-02T15:30:32;0.80;;;0.80;;
15651;SDS011;7926;43.576;1.458;2022-09-02T15:33:01;0.90;;;0.90;;
15651;SDS011;7926;43.576;1.458;2022-09-02T15:35:30;0.80;;;0.80;;
15651;SDS011;7926;43.576;1.458;2022-09-02T15:37:58;0.90;;;0.90;;
15651;SDS011;7926;43.576;1.458;2022-09-02T15:45:43;0.90;;;0.90;;
15651;SDS011;7926;43.576;1.458;2022-09-02T15:48:11;0.80;;;0.80;;
15651;SDS011;7926;43.576;1.458;2022-09-02T15:50:38;0.80;;;0.80;;
15651;SDS011;7926;43.576;1.458;2022-09-02T15:53:10;0.93;;;0.93;;
15651;SDS011;7926;43.576;1.458;2022-09-02T15:55:37;0.80;;;0.80;;
15651;SDS011;7926;43.576;1.458;2022-09-02T15:58:04;0.90;;;0.90;;
15651;SDS011;7926;43.576;1.458;2022-09-02T16:00:32;0.98;;;0.98;;
15651;SDS011;7926;43.576;1.458;2022-09-02T16:03:01;0.85;;;0.85;;
15651;SDS011;7926;43.576;1.458;2022-09-02T16:05:28;0.80;;;0.80;;
15651;SDS011;7926;43.576;1.458;2022-09-02T16:07:56;0.80;;;0.80;;
15651;SDS011;7926;43.576;1.458;2022-09-02T16:10:24;0.80;;;0.80;;
15651;SDS011;7926;43.576;1.458;2022-09-02T16:12:52;0.80;;;0.80;;
15651;SDS011;7926;43.576;1.458;2022-09-02T16:15:28;0.80;;;0.80;;
15651;SDS011;7926;43.576;1.458;2022-09-02T16:17:55;0.80;;;0.80;;
15651;SDS011;7926;43.576;1.458;2022-09-02T16:20:25;0.80;;;0.80;;
15651;SDS011;7926;43.576;1.458;2022-09-02T16:22:52;0.80;;;0.80;;
15651;SDS011;7926;43.576;1.458;2022-09-02T16:25:20;0.90;;;0.90;;
15651;SDS011;7926;43.576;1.458;2022-09-02T16:27:47;0.90;;;0.90;;
15651;SDS011;7926;43.576;1.458;2022-09-02T16:30:18;0.80;;;0.80;;
15651;SDS011;7926;43.576;1.458;2022-09-02T16:32:45;0.80;;;0.80;;
15651;SDS011;7926;43.576;1.458;2022-09-02T16:35:14;0.90;;;0.90;;